Time;durP1;ratioP1;P1;durP2;ratioP2;P2;SDS_P1;SDS_P2;PMS_P1;PMS_P2;Temp;Humidity;BMP_temperature;BMP_pressure;BME280_temperature;BME280_humidity;BME280_pressure;Samples;Min_cycle;Max_cycle;Signal;HPM_P1;HPM_P2
2022/11/09 00:02:22;;;;;;;4.95;1.73;;;;;;;14.86;45.27;100628.66;7395829;19;20010;-58
2022/11/09 00:04:48;;;;;;;5.75;1.67;;;;;;;14.89;45.64;100623.19;7396463;19;20003;-57
2022/11/09 00:07:13;;;;;;;3.40;1.58;;;;;;;14.78;45.63;100623.09;7395026;19;20005;-59
2022/11/09 00:09:39;;;;;;;6.10;1.88;;;;;;;14.73;45.87;100620.66;7392702;19;20014;-58
2022/11/09 00:12:06;;;;;;;6.28;2.10;;;;;;;14.73;45.74;100622.56;7393396;19;20476;-58
2022/11/09 00:14:33;;;;;;;5.50;1.58;;;;;;;14.74;45.72;100619.47;7393767;19;19999;-59
2022/11/09 00:16:59;;;;;;;12.18;2.22;;;;;;;14.69;45.80;100608.81;7395030;19;20006;-57
2022/11/09 00:19:25;;;;;;;5.15;2.00;;;;;;;14.67;46.12;100610.38;7394103;19;20002;-57
2022/11/09 00:21:51;;;;;;;5.53;1.60;;;;;;;14.55;46.16;100608.66;7395318;19;20038;-58
2022/11/09 00:24:16;;;;;;;6.20;2.15;;;;;;;14.54;46.52;100616.06;7395023;19;20002;-57
2022/11/09 00:26:42;;;;;;;5.32;1.92;;;;;;;14.53;46.25;100610.97;7394239;19;20099;-58
2022/11/09 00:29:08;;;;;;;4.90;1.60;;;;;;;14.43;46.50;100602.22;7393964;19;20007;-59
2022/11/09 00:31:35;;;;;;;6.80;1.85;;;;;;;14.51;46.48;100605.06;7393618;19;20018;-59
2022/11/09 00:34:00;;;;;;;4.20;1.80;;;;;;;14.59;46.11;100602.00;7393922;19;20062;-58
2022/11/09 00:36:28;;;;;;;5.50;2.10;;;;;;;14.48;46.48;100597.56;7394497;19;20015;-58
2022/11/09 00:38:57;;;;;;;3.47;1.70;;;;;;;14.59;46.24;100604.75;7394020;19;20029;-57
2022/11/09 00:41:23;;;;;;;7.05;2.03;;;;;;;14.46;46.25;100586.16;7394879;19;20002;-58
2022/11/09 00:43:50;;;;;;;5.65;1.73;;;;;;;14.28;46.61;100596.91;7392818;19;19994;-59
2022/11/09 00:46:16;;;;;;;4.15;1.70;;;;;;;14.43;46.65;100585.75;7394101;19;20031;-59
2022/11/09 00:48:43;;;;;;;4.47;1.55;;;;;;;14.47;46.23;100590.50;7392293;19;20013;-60
2022/11/09 00:51:09;;;;;;;4.85;1.65;;;;;;;14.36;46.53;100585.66;7393768;19;20022;-59
2022/11/09 00:53:34;;;;;;;5.90;1.90;;;;;;;14.39;46.44;100584.91;7394110;19;19998;-58
2022/11/09 00:56:06;;;;;;;4.13;1.52;;;;;;;14.43;46.33;100591.25;7393911;19;20006;-59
2022/11/09 00:58:34;;;;;;;7.28;2.20;;;;;;;14.41;46.72;100582.59;7393130;19;19995;-58
2022/11/09 01:01:06;;;;;;;4.18;1.70;;;;;;;14.40;46.50;100581.00;7394289;19;19991;-58
2022/11/09 01:03:32;;;;;;;5.47;1.80;;;;;;;14.35;46.51;100577.81;7393652;19;20022;-58
2022/11/09 01:05:58;;;;;;;6.82;1.92;;;;;;;14.36;46.63;100584.84;7394275;19;19994;-58
2022/11/09 01:08:24;;;;;;;4.03;1.55;;;;;;;14.34;46.58;100584.44;7391112;19;20400;-59
2022/11/09 01:10:50;;;;;;;5.03;2.00;;;;;;;14.30;46.66;100587.16;7392650;19;19998;-58
2022/11/09 01:13:17;;;;;;;4.32;1.98;;;;;;;14.10;47.08;100593.94;7391921;19;20087;-58
2022/11/09 01:15:46;;;;;;;4.32;1.70;;;;;;;14.10;47.25;100594.72;7393314;19;20010;-58
2022/11/09 01:18:13;;;;;;;5.35;1.90;;;;;;;14.12;47.19;100594.34;7392952;19;19997;-60
2022/11/09 01:20:44;;;;;;;11.13;2.42;;;;;;;14.29;46.81;100591.03;7391228;19;20020;-58
2022/11/09 01:23:11;;;;;;;3.65;1.60;;;;;;;14.28;47.01;100599.66;7392790;19;20483;-58
2022/11/09 01:25:37;;;;;;;5.97;1.80;;;;;;;14.30;46.73;100598.13;7391481;19;20014;-57
2022/11/09 01:28:03;;;;;;;4.82;1.80;;;;;;;14.32;46.93;100606.00;7392327;19;20006;-59
2022/11/09 01:30:32;;;;;;;4.40;1.83;;;;;;;14.22;47.18;100604.69;7390166;19;20082;-58
2022/11/09 01:32:57;;;;;;;5.97;1.85;;;;;;;14.21;47.11;100603.09;7393208;19;20005;-58
2022/11/09 01:35:23;;;;;;;4.80;2.00;;;;;;;14.26;47.18;100591.78;7392841;19;20474;-58
2022/11/09 01:37:48;;;;;;;4.10;1.70;;;;;;;14.22;47.15;100602.72;7390449;19;19994;-59
2022/11/09 01:40:14;;;;;;;6.60;1.98;;;;;;;14.18;47.35;100596.41;7390522;19;20056;-59
2022/11/09 01:42:40;;;;;;;4.78;2.00;;;;;;;14.31;47.02;100598.91;7392805;19;20010;-59
2022/11/09 01:45:20;;;;;;;4.85;1.83;;;;;;;14.24;47.40;100591.38;7390798;19;20022;-58
2022/11/09 01:47:56;;;;;;;8.00;2.05;;;;;;;14.28;47.29;100594.16;7390639;19;20003;-58
2022/11/09 01:50:30;;;;;;;4.43;1.73;;;;;;;14.24;47.33;100583.94;7389757;19;20533;-58
2022/11/09 01:52:57;;;;;;;4.65;1.80;;;;;;;14.17;47.50;100583.03;7392000;19;20027;-56
2022/11/09 01:55:23;;;;;;;5.53;1.80;;;;;;;14.29;47.33;100584.78;7391891;19;20002;-59
2022/11/09 01:57:59;;;;;;;4.78;1.80;;;;;;;14.29;47.32;100582.81;7389455;19;20443;-59
2022/11/09 02:00:24;;;;;;;4.25;2.03;;;;;;;14.22;47.32;100578.00;7389890;19;19998;-58
2022/11/09 02:03:06;;;;;;;4.85;2.00;;;;;;;14.29;47.50;100577.31;7390753;19;20025;-58
2022/11/09 02:05:35;;;;;;;7.22;1.88;;;;;;;14.28;47.45;100583.19;7390496;19;20009;-59
2022/11/09 02:08:04;;;;;;;6.80;1.90;;;;;;;14.24;47.43;100589.44;7391609;19;20007;-56
2022/11/09 02:10:35;;;;;;;5.32;2.00;;;;;;;14.31;47.17;100579.69;7389961;19;20079;-57
2022/11/09 02:13:02;;;;;;;4.47;1.80;;;;;;;14.39;47.10;100584.91;7391760;19;20003;-57
2022/11/09 02:15:28;;;;;;;7.88;2.00;;;;;;;14.40;47.06;100575.50;7391429;19;20003;-58
2022/11/09 02:17:56;;;;;;;5.93;1.90;;;;;;;14.36;47.23;100585.66;7391378;19;20010;-57
2022/11/09 02:20:23;;;;;;;5.20;1.88;;;;;;;14.37;47.42;100580.97;7388949;19;20011;-58
2022/11/09 02:22:49;;;;;;;4.10;1.80;;;;;;;14.33;47.27;100580.91;7389644;19;20003;-58
2022/11/09 02:25:16;;;;;;;5.93;2.05;;;;;;;14.19;47.74;100577.97;7391602;19;20034;-58
2022/11/09 02:27:43;;;;;;;6.80;2.13;;;;;;;14.20;47.74;100582.31;7391089;19;20009;-58
2022/11/09 02:30:10;;;;;;;5.88;2.00;;;;;;;14.27;47.63;100565.16;7389069;19;20455;-58
2022/11/09 02:32:36;;;;;;;6.57;2.25;;;;;;;14.20;47.64;100574.06;7391185;19;19999;-59
2022/11/09 02:35:02;;;;;;;6.45;2.08;;;;;;;14.25;47.69;100573.75;7390669;19;19990;-59
2022/11/09 02:37:40;;;;;;;6.13;2.10;;;;;;;14.24;47.56;100574.91;7388905;19;20169;-59
2022/11/09 02:40:11;;;;;;;5.85;1.70;;;;;;;14.15;47.89;100568.91;7389410;19;20009;-58
2022/11/09 02:42:37;;;;;;;4.40;1.90;;;;;;;14.19;47.86;100570.53;7389099;19;20002;-58
2022/11/09 02:45:03;;;;;;;6.15;1.77;;;;;;;14.22;47.90;100569.00;7390839;19;20009;-58
2022/11/09 02:47:28;;;;;;;6.22;2.22;;;;;;;14.12;48.25;100564.16;7389251;19;20035;-58
2022/11/09 02:49:56;;;;;;;3.80;1.52;;;;;;;14.18;47.67;100574.44;7389578;19;20003;-58
2022/11/09 02:52:23;;;;;;;4.25;1.77;;;;;;;14.05;48.05;100573.88;7390271;19;19995;-58
2022/11/09 02:54:48;;;;;;;6.53;1.75;;;;;;;14.20;47.86;100565.84;7389498;19;20002;-58
2022/11/09 02:57:14;;;;;;;5.80;1.80;;;;;;;14.17;48.08;100570.09;7390097;19;20002;-58
2022/11/09 02:59:40;;;;;;;6.78;2.10;;;;;;;14.29;47.87;100568.31;7387914;19;19999;-58
2022/11/09 03:02:05;;;;;;;2.88;1.60;;;;;;;14.34;47.66;100568.75;7390460;19;19991;-58
2022/11/09 03:04:31;;;;;;;5.45;1.60;;;;;;;14.40;47.70;100577.47;7390917;19;20006;-57
2022/11/09 03:06:57;;;;;;;6.13;1.90;;;;;;;14.42;47.60;100572.38;7387390;19;20005;-58
2022/11/09 03:09:22;;;;;;;4.88;2.00;;;;;;;14.42;47.44;100573.16;7388306;19;20471;-57
2022/11/09 03:11:49;;;;;;;5.10;1.80;;;;;;;14.33;47.79;100563.63;7388312;19;19994;-58
2022/11/09 03:14:16;;;;;;;4.05;1.83;;;;;;;14.28;47.78;100573.00;7390262;19;19995;-58
2022/11/09 03:16:41;;;;;;;5.60;1.70;;;;;;;14.25;47.80;100568.25;7389002;19;20011;-58
2022/11/09 03:19:07;;;;;;;5.07;1.90;;;;;;;14.18;48.14;100573.66;7387674;19;20487;-58
2022/11/09 03:21:33;;;;;;;4.65;1.95;;;;;;;14.19;47.96;100577.97;7388463;19;20006;-58
2022/11/09 03:23:59;;;;;;;4.25;1.70;;;;;;;14.20;47.92;100574.84;7388459;19;20460;-58
2022/11/09 03:26:25;;;;;;;5.55;1.60;;;;;;;14.22;47.71;100561.53;7389299;19;19995;-58
2022/11/09 03:28:50;;;;;;;4.82;1.90;;;;;;;14.21;47.96;100561.91;7389286;19;19991;-57
2022/11/09 03:31:16;;;;;;;3.85;1.73;;;;;;;14.18;47.90;100568.16;7386972;19;20039;-57
2022/11/09 03:33:42;;;;;;;4.88;1.83;;;;;;;14.18;48.14;100568.16;7393491;19;20003;-57
2022/11/09 03:36:08;;;;;;;4.70;1.77;;;;;;;14.16;48.04;100564.97;7396767;19;20026;-58
2022/11/09 03:38:40;;;;;;;3.85;1.77;;;;;;;14.23;47.98;100563.13;7394851;19;19994;-59
2022/11/09 03:41:05;;;;;;;7.15;2.10;;;;;;;14.27;47.64;100563.19;7397184;19;20013;-57
2022/11/09 03:43:31;;;;;;;5.85;1.80;;;;;;;14.21;48.10;100568.22;7397146;19;19998;-57
2022/11/09 03:45:56;;;;;;;5.18;1.90;;;;;;;14.23;47.92;100581.56;7396356;19;20461;-57
2022/11/09 03:48:23;;;;;;;5.07;1.73;;;;;;;14.22;48.01;100574.50;7393977;19;19998;-58
2022/11/09 03:50:48;;;;;;;5.25;1.98;;;;;;;14.13;48.25;100584.94;7394757;19;20005;-58
2022/11/09 03:53:14;;;;;;;7.13;1.70;;;;;;;14.21;48.26;100589.38;7396585;19;20054;-58
2022/11/09 03:55:40;;;;;;;7.72;2.10;;;;;;;14.19;48.08;100588.94;7396535;19;20003;-57
2022/11/09 03:58:08;;;;;;;7.20;2.03;;;;;;;14.11;48.54;100585.34;7395749;19;19995;-59
2022/11/09 04:00:35;;;;;;;6.55;2.00;;;;;;;14.15;48.18;100579.88;7393989;19;20002;-58
2022/11/09 04:03:00;;;;;;;8.05;2.17;;;;;;;14.23;48.18;100579.59;7396080;19;19998;-58
2022/11/09 04:05:26;;;;;;;4.53;1.63;;;;;;;14.25;47.96;100574.53;7396119;19;20001;-57
2022/11/09 04:07:54;;;;;;;6.30;1.70;;;;;;;14.19;48.34;100572.47;7394451;19;20015;-57
2022/11/09 04:10:20;;;;;;;5.93;1.90;;;;;;;14.32;47.77;100573.84;7394686;19;19998;-58
2022/11/09 04:12:46;;;;;;;5.22;1.83;;;;;;;14.33;47.98;100580.91;7397115;19;19998;-59
2022/11/09 04:15:13;;;;;;;3.45;1.77;;;;;;;14.34;47.95;100587.97;7397449;19;19990;-58
2022/11/09 04:17:38;;;;;;;5.25;1.60;;;;;;;14.42;47.66;100583.38;7395367;19;20459;-58
2022/11/09 04:20:05;;;;;;;6.15;2.13;;;;;;;14.37;47.81;100583.69;7393561;19;20010;-58
2022/11/09 04:22:31;;;;;;;6.60;1.95;;;;;;;14.39;47.83;100590.38;7396706;19;20097;-59
2022/11/09 04:24:57;;;;;;;6.78;1.90;;;;;;;14.32;47.93;100590.31;7397130;19;19998;-58
2022/11/09 04:27:22;;;;;;;4.93;1.70;;;;;;;14.27;48.26;100590.63;7395384;19;19987;-59
2022/11/09 04:29:48;;;;;;;3.83;1.65;;;;;;;14.39;47.89;100584.13;7395170;19;20031;-59
2022/11/09 04:32:14;;;;;;;3.47;1.60;;;;;;;14.44;47.77;100584.59;7394311;19;20006;-59
2022/11/09 04:34:40;;;;;;;6.40;1.60;;;;;;;14.39;47.81;100582.16;7396774;19;20007;-59
2022/11/09 04:37:06;;;;;;;6.55;1.70;;;;;;;14.32;48.05;100584.81;7396469;19;20077;-59
2022/11/09 04:39:32;;;;;;;6.63;1.67;;;;;;;14.36;48.12;100596.66;7393791;19;20424;-58
2022/11/09 04:41:57;;;;;;;4.35;1.60;;;;;;;14.40;48.06;100597.47;7396366;19;20028;-59
2022/11/09 04:44:23;;;;;;;5.90;2.05;;;;;;;14.41;47.92;100595.50;7393702;19;20461;-58
2022/11/09 04:46:49;;;;;;;5.40;1.63;;;;;;;14.33;48.35;100591.09;7395485;19;20572;-58
2022/11/09 04:49:14;;;;;;;6.78;1.92;;;;;;;14.39;48.17;100595.09;7394642;19;20027;-58
2022/11/09 04:51:40;;;;;;;3.72;1.50;;;;;;;14.42;47.87;100592.41;7394863;19;20039;-57
2022/11/09 04:54:12;;;;;;;5.22;1.70;;;;;;;14.44;47.85;100592.03;7395806;19;19998;-58
2022/11/09 04:56:38;;;;;;;6.05;1.85;;;;;;;14.39;48.14;100595.88;7395400;19;20011;-58
2022/11/09 04:59:04;;;;;;;5.53;1.60;;;;;;;14.49;47.92;100594.44;7394779;19;20782;-59
2022/11/09 05:01:30;;;;;;;2.88;1.50;;;;;;;14.42;48.01;100595.13;7394307;19;20005;-58
2022/11/09 05:03:56;;;;;;;4.60;1.65;;;;;;;14.47;47.95;100596.78;7393367;19;20026;-59
2022/11/09 05:06:30;;;;;;;6.38;1.65;;;;;;;14.32;48.32;100595.78;7394701;19;20014;-58
2022/11/09 05:08:58;;;;;;;4.82;2.00;;;;;;;14.37;48.05;100598.22;7392591;19;20022;-57
2022/11/09 05:11:23;;;;;;;4.03;1.65;;;;;;;14.33;48.07;100591.91;7394031;19;19994;-57
2022/11/09 05:13:52;;;;;;;3.17;1.50;;;;;;;14.30;48.27;100592.63;7394791;19;20022;-57
2022/11/09 05:16:18;;;;;;;4.88;1.65;;;;;;;14.31;48.42;100583.25;7392397;19;20021;-59
2022/11/09 05:18:44;;;;;;;4.38;1.83;;;;;;;14.32;48.33;100578.53;7392246;19;20455;-59
2022/11/09 05:21:20;;;;;;;3.13;1.67;;;;;;;14.35;48.17;100573.09;7393022;19;20018;-59
2022/11/09 05:23:58;;;;;;;5.65;1.75;;;;;;;14.25;48.39;100582.75;7395163;19;20116;-59
2022/11/09 05:26:35;;;;;;;6.15;1.70;;;;;;;14.38;48.22;100583.34;7394414;19;20058;-59
2022/11/09 05:29:16;;;;;;;3.33;1.30;;;;;;;14.31;48.34;100588.75;7386245;19;19999;-58
2022/11/09 05:31:44;;;;;;;6.97;1.77;;;;;;;14.35;48.19;100588.78;7393938;19;20010;-59
2022/11/09 05:34:13;;;;;;;3.63;1.70;;;;;;;14.25;48.39;100590.22;7395902;19;20119;-58
2022/11/09 05:36:38;;;;;;;3.78;1.42;;;;;;;14.13;48.93;100593.97;7393461;19;20331;-59
2022/11/09 05:39:04;;;;;;;3.22;1.17;;;;;;;14.18;48.51;100596.41;7389429;19;20002;-59
2022/11/09 05:41:29;;;;;;;5.78;1.88;;;;;;;14.31;48.34;100599.72;7394329;19;19999;-58
2022/11/09 05:43:55;;;;;;;4.82;1.50;;;;;;;14.37;47.90;100603.69;7392617;19;19990;-58
2022/11/09 05:46:21;;;;;;;4.43;1.45;;;;;;;14.36;47.97;100606.81;7390225;19;20473;-58
2022/11/09 05:48:46;;;;;;;3.45;1.38;;;;;;;14.35;48.10;100610.75;7390395;19;20010;-58
2022/11/09 05:51:13;;;;;;;6.07;1.70;;;;;;;14.39;48.10;100612.34;7391764;19;19998;-57
2022/11/09 05:53:39;;;;;;;3.85;1.55;;;;;;;14.39;48.14;100617.84;7392800;19;20022;-58
2022/11/09 05:56:07;;;;;;;6.35;1.70;;;;;;;14.34;47.97;100618.16;7390198;19;20003;-58
2022/11/09 05:58:36;;;;;;;4.15;1.65;;;;;;;14.28;48.33;100614.19;7392230;19;20025;-58
2022/11/09 06:01:07;;;;;;;5.55;1.50;;;;;;;14.19;48.43;100627.38;7390733;19;20020;-58
2022/11/09 06:03:42;;;;;;;4.43;1.40;;;;;;;14.20;48.57;100626.22;7393091;19;20003;-58
2022/11/09 06:06:13;;;;;;;4.88;1.70;;;;;;;14.15;48.80;100623.81;7391522;19;20015;-58
2022/11/09 06:08:39;;;;;;;5.43;1.55;;;;;;;14.12;48.64;100624.53;7390187;19;20350;-58
2022/11/09 06:11:08;;;;;;;4.70;1.70;;;;;;;14.08;48.64;100619.00;7390799;19;20066;-58
2022/11/09 06:13:34;;;;;;;6.22;1.83;;;;;;;14.18;48.15;100623.84;7391846;19;19999;-58
2022/11/09 06:16:02;;;;;;;5.60;1.60;;;;;;;14.25;48.26;100623.16;7392181;19;20449;-58
2022/11/09 06:18:29;;;;;;;7.18;1.67;;;;;;;14.25;47.80;100618.44;7391545;19;19999;-58
2022/11/09 06:20:57;;;;;;;4.95;1.70;;;;;;;14.23;48.12;100618.03;7390047;19;20065;-58
2022/11/09 06:23:24;;;;;;;3.00;1.52;;;;;;;14.13;48.39;100626.09;7391008;19;20002;-57
2022/11/09 06:26:05;;;;;;;6.05;1.58;;;;;;;14.29;48.18;100620.47;7391980;19;19995;-58
2022/11/09 06:28:31;;;;;;;3.58;1.60;;;;;;;14.39;47.82;100628.81;7390835;19;20493;-58
2022/11/09 06:30:58;;;;;;;9.20;2.08;;;;;;;14.34;48.09;100634.66;7389667;19;19999;-58
2022/11/09 06:33:24;;;;;;;4.15;1.90;;;;;;;14.19;48.21;100632.88;7390442;19;20082;-58
2022/11/09 06:35:50;;;;;;;5.80;1.80;;;;;;;14.20;48.44;100643.47;7390633;19;20010;-58
2022/11/09 06:38:15;;;;;;;5.55;1.50;;;;;;;14.20;48.22;100643.47;7388073;19;19994;-58
2022/11/09 06:40:41;;;;;;;6.65;1.77;;;;;;;14.25;48.45;100642.38;7387292;19;20014;-58
2022/11/09 06:43:07;;;;;;;5.68;1.77;;;;;;;14.39;47.93;100647.25;7390894;19;20002;-57
2022/11/09 06:45:33;;;;;;;4.45;1.58;;;;;;;14.48;47.87;100644.22;7391039;19;20003;-57
2022/11/09 06:48:01;;;;;;;6.63;1.88;;;;;;;14.44;47.85;100639.50;7390565;19;20111;-57
2022/11/09 06:50:31;;;;;;;5.60;1.73;;;;;;;14.38;48.03;100646.47;7387375;19;19999;-58
2022/11/09 06:53:03;;;;;;;7.20;1.80;;;;;;;14.44;47.82;100652.44;7391823;19;20002;-58
2022/11/09 06:55:31;;;;;;;5.17;1.73;;;;;;;14.53;47.50;100663.13;7388882;19;20044;-57
2022/11/09 06:57:57;;;;;;;6.78;1.80;;;;;;;14.54;47.41;100661.97;7389944;19;20003;-57
2022/11/09 07:00:23;;;;;;;5.65;1.52;;;;;;;14.44;47.76;100650.50;7387027;19;20105;-58
2022/11/09 07:02:49;;;;;;;5.25;1.63;;;;;;;14.42;47.77;100652.00;7388930;19;20024;-57
2022/11/09 07:05:15;;;;;;;5.07;1.40;;;;;;;14.12;48.62;100660.22;7391331;19;20003;-57
2022/11/09 07:07:41;;;;;;;6.05;1.65;;;;;;;14.24;47.92;100662.75;7392340;19;20003;-58
2022/11/09 07:10:07;;;;;;;6.28;1.77;;;;;;;14.28;48.08;100677.31;7396175;19;20090;-58
2022/11/09 07:12:34;;;;;;;5.72;1.80;;;;;;;14.26;48.04;100671.38;7397203;19;20091;-57
2022/11/09 07:15:00;;;;;;;5.78;1.75;;;;;;;14.31;47.92;100681.28;7398058;19;20025;-58
2022/11/09 07:17:29;;;;;;;7.72;1.85;;;;;;;14.17;48.31;100687.34;7396163;19;20003;-58
2022/11/09 07:19:54;;;;;;;7.65;2.13;;;;;;;14.32;47.92;100682.88;7396511;19;20003;-58
2022/11/09 07:22:20;;;;;;;9.43;2.00;;;;;;;14.35;47.74;100688.41;7394553;19;20318;-58
2022/11/09 07:24:45;;;;;;;5.28;1.77;;;;;;;14.39;47.75;100694.72;7397641;19;20016;-57
2022/11/09 07:27:11;;;;;;;8.95;1.85;;;;;;;14.47;47.48;100694.84;7396807;19;20010;-58
2022/11/09 07:29:36;;;;;;;5.82;2.13;;;;;;;14.34;47.63;100695.03;7394863;19;20055;-57
2022/11/09 07:32:02;;;;;;;6.00;2.00;;;;;;;14.33;47.70;100696.22;7394019;19;20399;-57
2022/11/09 07:34:28;;;;;;;12.00;1.70;;;;;;;14.30;47.91;100701.66;7396154;19;20023;-58
2022/11/09 07:36:54;;;;;;;11.10;2.65;;;;;;;14.30;47.77;100702.44;7399992;19;20009;-58
2022/11/09 07:39:20;;;;;;;5.05;1.60;;;;;;;14.34;47.49;100711.53;7395721;19;20003;-58
2022/11/09 07:41:47;;;;;;;11.75;2.15;;;;;;;14.45;47.42;100717.19;7396003;19;19998;-57
2022/11/09 07:44:17;;;;;;;8.95;2.10;;;;;;;14.52;47.23;100719.25;7396164;19;19991;-57
2022/11/09 07:46:45;;;;;;;10.43;1.90;;;;;;;14.50;47.04;100710.59;7395737;19;20013;-57
2022/11/09 07:49:12;;;;;;;8.50;2.25;;;;;;;14.46;47.48;100713.25;7395905;19;20082;-57
2022/11/09 07:51:39;;;;;;;7.35;1.73;;;;;;;14.38;47.71;100720.63;7392320;19;20038;-57
2022/11/09 07:54:05;;;;;;;7.07;2.03;;;;;;;14.41;47.24;100716.31;7397036;19;20065;-57
2022/11/09 07:56:30;;;;;;;10.13;2.10;;;;;;;14.39;47.33;100713.94;7395758;19;20026;-57
2022/11/09 07:58:56;;;;;;;8.02;2.00;;;;;;;14.51;47.28;100723.13;7393869;19;20098;-58
2022/11/09 08:01:22;;;;;;;7.88;1.92;;;;;;;14.42;47.35;100721.44;7394079;19;20074;-57
2022/11/09 08:03:47;;;;;;;10.23;1.98;;;;;;;14.36;47.51;100714.72;7396109;19;20001;-58
2022/11/09 08:06:13;;;;;;;6.38;1.98;;;;;;;14.30;47.65;100718.91;7393938;19;20066;-57
2022/11/09 08:08:39;;;;;;;9.25;1.85;;;;;;;14.24;47.45;100714.91;7395725;19;20173;-58
2022/11/09 08:11:04;;;;;;;6.93;1.95;;;;;;;14.29;47.52;100713.78;7395027;19;20018;-57
2022/11/09 08:13:30;;;;;;;7.40;1.92;;;;;;;14.34;47.29;100716.22;7394833;19;20299;-57
2022/11/09 08:15:56;;;;;;;7.70;1.80;;;;;;;14.33;47.59;100720.13;7393764;19;19998;-58
2022/11/09 08:18:22;;;;;;;8.35;1.85;;;;;;;14.33;47.57;100717.38;7392956;19;20423;-58
2022/11/09 08:20:48;;;;;;;11.32;2.00;;;;;;;14.30;47.50;100720.88;7392497;19;20041;-58
2022/11/09 08:23:17;;;;;;;9.38;2.20;;;;;;;14.26;47.68;100712.56;7394530;19;20307;-57
2022/11/09 08:25:43;;;;;;;10.00;1.77;;;;;;;14.42;47.37;100715.97;7396107;19;20012;-57
2022/11/09 08:28:09;;;;;;;8.38;1.70;;;;;;;14.52;47.28;100714.53;7391516;19;20764;-57
2022/11/09 08:30:34;;;;;;;9.98;2.10;;;;;;;14.51;47.23;100723.13;7397676;19;19998;-55
2022/11/09 08:33:02;;;;;;;15.65;2.40;;;;;;;14.46;47.22;100727.00;7400084;19;20015;-55
2022/11/09 08:35:29;;;;;;;11.75;2.15;;;;;;;14.41;47.52;100724.56;7393617;19;20002;-55
2022/11/09 08:37:55;;;;;;;10.15;1.88;;;;;;;14.54;47.16;100728.69;7394224;19;20329;-55
2022/11/09 08:40:23;;;;;;;8.80;1.95;;;;;;;14.69;46.85;100724.19;7393506;19;20030;-55
2022/11/09 08:42:49;;;;;;;12.68;2.60;;;;;;;14.60;46.81;100723.69;7392180;19;20045;-55
2022/11/09 08:45:15;;;;;;;9.38;2.05;;;;;;;14.46;47.40;100720.72;7393075;19;20003;-56
2022/11/09 08:47:42;;;;;;;8.13;1.88;;;;;;;14.49;47.16;100725.47;7394833;19;20003;-55
2022/11/09 08:50:09;;;;;;;7.70;1.60;;;;;;;14.60;46.96;100718.19;7391595;19;20003;-56
2022/11/09 08:52:35;;;;;;;13.57;2.28;;;;;;;14.86;46.38;100724.81;7392774;19;20009;-55
2022/11/09 08:55:01;;;;;;;8.18;2.30;;;;;;;14.92;46.40;100715.88;7394649;19;19999;-56
2022/11/09 08:57:27;;;;;;;8.43;1.75;;;;;;;14.74;46.71;100732.09;7392354;19;20007;-57
2022/11/09 08:59:52;;;;;;;12.93;2.35;;;;;;;14.92;46.60;100729.63;7391456;19;20447;-57
2022/11/09 09:02:19;;;;;;;14.15;1.77;;;;;;;14.93;46.69;100736.72;7392956;19;19998;-56
2022/11/09 09:04:45;;;;;;;10.35;2.00;;;;;;;14.78;46.75;100735.72;7394020;19;20002;-56
2022/11/09 09:07:11;;;;;;;10.20;1.90;;;;;;;14.99;46.36;100737.16;7391569;19;20006;-57
2022/11/09 09:09:37;;;;;;;10.65;2.15;;;;;;;14.99;46.17;100735.19;7393159;19;20006;-57
2022/11/09 09:12:04;;;;;;;10.77;2.40;;;;;;;15.05;46.23;100746.69;7391044;19;20403;-57
2022/11/09 09:14:30;;;;;;;12.77;1.80;;;;;;;15.06;45.78;100740.00;7393032;19;20003;-56
2022/11/09 09:16:56;;;;;;;12.57;1.92;;;;;;;15.14;45.94;100744.41;7393837;19;20379;-56
2022/11/09 09:19:22;;;;;;;13.85;2.05;;;;;;;14.98;46.14;100744.63;7392478;19;20009;-56
2022/11/09 09:21:47;;;;;;;13.13;2.42;;;;;;;15.05;45.90;100748.66;7391416;19;20360;-56
2022/11/09 09:24:13;;;;;;;12.07;2.35;;;;;;;14.96;46.13;100746.16;7390374;19;20007;-56
2022/11/09 09:26:38;;;;;;;8.20;2.10;;;;;;;14.94;46.26;100754.00;7392080;19;20320;-56
2022/11/09 09:29:04;;;;;;;7.88;1.88;;;;;;;14.89;46.31;100748.81;7393089;19;20002;-56
2022/11/09 09:31:29;;;;;;;10.05;2.00;;;;;;;14.85;46.38;100757.03;7387191;19;20003;-56
2022/11/09 09:33:55;;;;;;;10.50;1.92;;;;;;;14.95;46.24;100761.06;7393465;19;20365;-56
2022/11/09 09:36:23;;;;;;;9.02;1.95;;;;;;;15.03;45.77;100765.50;7392356;19;19994;-56
2022/11/09 09:38:56;;;;;;;9.02;2.15;;;;;;;15.10;45.99;100765.59;7392969;19;20006;-56
2022/11/09 09:41:40;;;;;;;11.90;2.15;;;;;;;15.17;45.76;100771.16;7390557;19;20014;-56
2022/11/09 09:44:22;;;;;;;10.15;1.98;;;;;;;15.21;45.46;100778.66;7391379;19;20003;-55
2022/11/09 09:47:10;;;;;;;8.38;2.00;;;;;;;15.25;45.51;100782.28;7390562;19;20055;-55
2022/11/09 09:49:41;;;;;;;12.00;1.92;;;;;;;15.06;45.89;100783.97;7391690;19;20007;-56
2022/11/09 09:52:17;;;;;;;13.43;2.10;;;;;;;15.01;45.97;100778.81;7391329;19;20006;-56
2022/11/09 09:55:34;;;;;;;8.50;2.20;;;;;;;15.09;45.87;100775.00;7392901;19;20009;-55
2022/11/09 09:58:15;;;;;;;12.20;2.33;;;;;;;14.91;46.15;100773.97;7389153;19;20328;-55
2022/11/09 10:00:42;;;;;;;13.13;1.90;;;;;;;14.86;46.03;100783.31;7391880;19;20021;-55
2022/11/09 10:03:19;;;;;;;7.80;1.92;;;;;;;14.76;46.23;100779.28;7392675;19;19998;-55
2022/11/09 10:06:05;;;;;;;5.65;1.80;;;;;;;14.77;45.96;100778.09;7390635;19;20009;-56
2022/11/09 10:08:51;;;;;;;11.57;2.15;;;;;;;14.97;46.14;100786.22;7391470;19;20302;-56
2022/11/09 10:11:54;;;;;;;9.95;2.03;;;;;;;15.09;45.67;100780.47;7392059;19;20340;-56
2022/11/09 10:14:37;;;;;;;8.32;1.98;;;;;;;15.16;45.55;100780.59;7391181;19;20011;-56
2022/11/09 10:17:22;;;;;;;9.77;2.33;;;;;;;15.19;45.28;100776.28;7391108;19;20001;-56
2022/11/09 10:20:23;;;;;;;14.60;2.28;;;;;;;15.52;44.63;100772.75;7390814;19;20029;-55
2022/11/09 10:22:58;;;;;;;14.10;2.00;;;;;;;15.47;44.97;100777.81;7391559;19;20078;-55
2022/11/09 10:25:26;;;;;;;9.80;2.08;;;;;;;15.35;45.05;100787.09;7391329;19;20015;-55
2022/11/09 10:27:58;;;;;;;7.85;1.90;;;;;;;15.42;44.93;100781.69;7391437;19;20014;-55
2022/11/09 10:30:26;;;;;;;14.50;1.95;;;;;;;15.55;44.68;100785.75;7389095;19;19997;-54
2022/11/09 10:33:14;;;;;;;9.70;2.20;;;;;;;15.82;44.20;100780.19;7391707;19;20010;-55
2022/11/09 10:36:08;;;;;;;10.98;2.10;;;;;;;15.63;44.31;100777.59;7391432;19;19995;-55
2022/11/09 10:38:43;;;;;;;13.15;2.63;;;;;;;15.52;44.42;100775.50;7391172;19;19994;-55
2022/11/09 10:41:30;;;;;;;9.80;2.00;;;;;;;15.71;44.05;100779.28;7391032;19;19995;-55
2022/11/09 10:43:55;;;;;;;10.38;1.95;;;;;;;15.62;44.35;100767.75;7392541;19;20513;-55
2022/11/09 10:46:21;;;;;;;7.70;1.58;;;;;;;15.58;43.86;100775.16;7388245;19;19998;-55
2022/11/09 10:48:47;;;;;;;11.25;2.10;;;;;;;15.60;44.13;100765.38;7390219;19;20078;-55
2022/11/09 10:51:37;;;;;;;9.48;2.42;;;;;;;15.89;43.07;100763.72;7389899;19;20009;-55
2022/11/09 10:54:38;;;;;;;18.17;2.35;;;;;;;15.80;42.93;100763.25;7391013;19;20006;-54
2022/11/09 10:57:15;;;;;;;7.85;1.80;;;;;;;15.90;43.14;100767.28;7385286;19;20471;-55
2022/11/09 10:59:53;;;;;;;8.38;1.67;;;;;;;15.78;43.42;100765.59;7389910;19;20009;-59
2022/11/09 11:02:25;;;;;;;7.07;1.77;;;;;;;15.39;43.70;100771.44;7389984;19;20019;-55
2022/11/09 11:05:16;;;;;;;11.02;2.05;;;;;;;15.46;43.62;100771.50;7390806;19;20006;-56
2022/11/09 11:07:44;;;;;;;7.15;1.52;;;;;;;15.25;44.18;100771.28;7389931;19;19999;-56
2022/11/09 11:10:16;;;;;;;10.18;2.03;;;;;;;15.41;43.60;100771.84;7389529;19;20010;-55
2022/11/09 11:12:50;;;;;;;7.57;1.65;;;;;;;15.67;43.35;100770.97;7389367;19;19999;-56
2022/11/09 11:15:25;;;;;;;11.52;2.58;;;;;;;15.54;43.83;100772.38;7390419;19;20006;-56
2022/11/09 11:18:00;;;;;;;8.80;1.80;;;;;;;15.55;43.64;100769.25;7389519;19;20336;-55
2022/11/09 11:20:28;;;;;;;10.63;2.15;;;;;;;15.57;43.49;100770.84;7393162;19;20470;-55
2022/11/09 11:23:26;;;;;;;10.13;2.00;;;;;;;15.73;42.71;100768.66;7388994;19;20003;-55
2022/11/09 11:25:52;;;;;;;10.55;1.65;;;;;;;15.46;43.63;100766.00;7387231;19;20347;-55
2022/11/09 11:28:25;;;;;;;10.35;2.10;;;;;;;15.40;43.73;100758.47;7390124;19;20006;-55
2022/11/09 11:30:51;;;;;;;8.73;1.70;;;;;;;15.68;43.16;100760.75;7385343;19;20002;-56
2022/11/09 11:33:20;;;;;;;8.88;2.30;;;;;;;15.80;43.26;100768.75;7388938;19;20006;-55